Time;durP1;ratioP1;P1;durP2;ratioP2;P2;SDS_P1;SDS_P2;PMS_P1;PMS_P2;Temp;Humidity;BMP_temperature;BMP_pressure;BME280_temperature;BME280_humidity;BME280_pressure;Samples;Min_cycle;Max_cycle;Signal;HPM_P1;HPM_P2
2021/07/13 00:00:26;;;;;;;13.73;12.40;;;17.70;99.90;;;;;;4975226;28;20030;-81
2021/07/13 00:02:52;;;;;;;13.15;12.05;;;17.70;99.90;;;;;;4977732;28;20539;-90
2021/07/13 00:05:20;;;;;;;13.73;12.60;;;17.70;99.90;;;;;;4984451;28;20101;-68
2021/07/13 00:07:47;;;;;;;15.43;13.95;;;17.70;99.90;;;;;;4992992;28;20268;-70
2021/07/13 00:10:14;;;;;;;17.77;16.23;;;17.70;99.90;;;;;;4993168;28;20608;-70
2021/07/13 00:12:40;;;;;;;18.73;16.95;;;17.80;99.90;;;;;;4994673;28;20371;-68
2021/07/13 00:15:28;;;;;;;17.80;16.30;;;17.80;99.90;;;;;;4994267;28;20042;-68
2021/07/13 00:17:55;;;;;;;18.40;16.80;;;17.80;99.90;;;;;;4975155;28;20547;-69
2021/07/13 00:20:22;;;;;;;20.35;18.52;;;17.90;99.90;;;;;;4974814;28;20478;-69
2021/07/13 00:22:48;;;;;;;22.27;20.42;;;17.90;99.90;;;;;;4983430;28;20054;-69
2021/07/13 00:25:16;;;;;;;21.25;19.38;;;17.90;99.90;;;;;;4975896;28;20476;-73
2021/07/13 00:27:42;;;;;;;20.90;19.08;;;18.00;99.90;;;;;;4976075;28;20093;-69
2021/07/13 00:30:09;;;;;;;19.55;17.85;;;18.00;99.90;;;;;;4974605;28;20037;-69
2021/07/13 00:32:35;;;;;;;20.80;19.10;;;18.00;99.90;;;;;;4976058;28;20091;-69
2021/07/13 00:35:01;;;;;;;21.48;19.63;;;18.00;99.90;;;;;;4975850;28;20472;-74
2021/07/13 00:37:26;;;;;;;21.88;19.95;;;18.00;99.90;;;;;;4986835;28;20364;-68
2021/07/13 00:39:52;;;;;;;21.58;19.67;;;18.10;99.90;;;;;;4973899;28;20031;-68
2021/07/13 00:42:18;;;;;;;20.70;18.80;;;18.10;99.90;;;;;;4976479;28;20451;-69
2021/07/13 00:44:45;;;;;;;22.90;20.80;;;18.20;99.90;;;;;;4974834;28;20034;-69
2021/07/13 00:47:11;;;;;;;21.65;19.60;;;18.20;99.90;;;;;;4974725;28;20027;-68
2021/07/13 00:49:37;;;;;;;21.10;19.00;;;18.20;99.90;;;;;;4974496;28;20427;-80
2021/07/13 00:52:04;;;;;;;22.17;20.25;;;18.30;99.90;;;;;;4985858;28;20387;-68
2021/07/13 00:54:30;;;;;;;22.40;20.45;;;18.30;99.90;;;;;;4992930;28;20026;-68
2021/07/13 00:56:56;;;;;;;21.60;19.65;;;18.30;99.90;;;;;;4993852;28;20034;-69
2021/07/13 00:59:23;;;;;;;22.48;20.38;;;18.30;99.90;;;;;;4979839;28;20034;-68
2021/07/13 01:01:49;;;;;;;22.23;20.25;;;18.30;99.90;;;;;;4974256;28;20031;-68
2021/07/13 01:04:17;;;;;;;22.23;20.27;;;18.30;99.90;;;;;;4987381;28;20072;-78
2021/07/13 01:06:58;;;;;;;21.80;19.80;;;18.40;99.90;;;;;;4991967;28;20030;-68
2021/07/13 01:09:42;;;;;;;22.27;20.38;;;18.40;99.90;;;;;;4973998;28;20023;-84
2021/07/13 01:12:33;;;;;;;20.58;18.65;;;18.40;99.90;;;;;;4974179;28;20031;-69
2021/07/13 01:15:02;;;;;;;20.83;18.92;;;18.40;99.90;;;;;;4974957;28;20066;-72
2021/07/13 01:17:37;;;;;;;20.90;18.85;;;18.40;99.90;;;;;;4973585;28;20109;-68
2021/07/13 01:20:06;;;;;;;19.73;17.95;;;18.40;99.90;;;;;;4974093;28;20122;-68
2021/07/13 01:22:37;;;;;;;19.98;18.23;;;18.40;99.90;;;;;;4992685;28;20091;-68
2021/07/13 01:25:16;;;;;;;20.35;18.55;;;18.40;99.90;;;;;;4993479;28;20022;-69
2021/07/13 01:27:48;;;;;;;19.77;18.08;;;18.40;99.90;;;;;;4993335;28;20356;-69
2021/07/13 01:30:17;;;;;;;20.35;18.00;;;18.40;99.90;;;;;;4981777;28;20051;-69
2021/07/13 01:32:47;;;;;;;19.15;17.45;;;18.40;99.90;;;;;;4974326;28;20027;-78
2021/07/13 01:35:22;;;;;;;20.08;18.17;;;18.40;99.90;;;;;;4974007;28;20062;-90
2021/07/13 01:37:52;;;;;;;20.40;18.55;;;18.40;99.90;;;;;;4984300;28;20030;-84
2021/07/13 01:40:19;;;;;;;23.00;21.05;;;18.40;99.90;;;;;;4992127;28;20036;-71
2021/07/13 01:42:45;;;;;;;24.65;22.35;;;18.40;99.90;;;;;;4989152;28;20489;-82
2021/07/13 01:45:12;;;;;;;23.20;21.15;;;18.40;99.90;;;;;;4981409;28;20026;-68
2021/07/13 01:47:38;;;;;;;24.67;22.48;;;18.40;99.90;;;;;;4984077;28;20046;-71
2021/07/13 01:50:06;;;;;;;23.50;21.40;;;18.40;99.90;;;;;;4962852;28;20062;-71
2021/07/13 01:52:33;;;;;;;24.15;22.05;;;18.40;99.90;;;;;;4992644;28;20034;-87
2021/07/13 01:54:59;;;;;;;23.05;20.98;;;18.40;99.90;;;;;;4987319;28;20523;-72
2021/07/13 01:57:27;;;;;;;22.90;20.75;;;18.40;99.90;;;;;;4972999;28;20526;-77
2021/07/13 01:59:53;;;;;;;22.52;20.52;;;18.50;99.90;;;;;;4956402;28;20555;-73
2021/07/13 02:02:20;;;;;;;21.48;19.58;;;18.50;99.90;;;;;;4973902;28;20113;-68
2021/07/13 02:04:47;;;;;;;21.73;19.77;;;18.50;99.90;;;;;;4955910;28;20022;-74
2021/07/13 02:07:14;;;;;;;21.55;19.42;;;18.50;99.90;;;;;;4973686;28;20022;-69
2021/07/13 02:09:43;;;;;;;21.58;19.30;;;18.50;99.90;;;;;;4974635;28;20045;-69
2021/07/13 02:12:10;;;;;;;21.05;19.02;;;18.50;99.90;;;;;;4955843;28;20041;-69
2021/07/13 02:14:36;;;;;;;20.63;18.67;;;18.50;99.90;;;;;;4973606;28;20126;-69
2021/07/13 02:17:02;;;;;;;20.38;18.50;;;18.50;99.90;;;;;;4955781;28;20369;-69
2021/07/13 02:19:28;;;;;;;18.85;16.92;;;18.50;99.90;;;;;;4956511;28;20027;-68
2021/07/13 02:21:57;;;;;;;19.02;17.42;;;18.50;99.90;;;;;;4973665;28;20030;-68
2021/07/13 02:24:23;;;;;;;19.60;17.67;;;18.40;99.90;;;;;;4973749;28;20038;-68
2021/07/13 02:27:06;;;;;;;20.75;18.80;;;18.40;99.90;;;;;;4973597;28;20034;-69
2021/07/13 02:29:43;;;;;;;20.13;18.20;;;18.40;99.90;;;;;;4975523;28;20031;-68
2021/07/13 02:32:39;;;;;;;19.80;17.80;;;18.40;99.90;;;;;;4976421;28;20023;-68
2021/07/13 02:35:06;;;;;;;20.45;18.35;;;18.40;99.90;;;;;;4981859;28;20038;-68
2021/07/13 02:37:36;;;;;;;19.92;18.17;;;18.30;99.90;;;;;;4996235;28;20034;-68
2021/07/13 02:40:08;;;;;;;20.40;18.50;;;18.30;99.90;;;;;;4988309;28;20053;-68
2021/07/13 02:42:35;;;;;;;21.08;19.05;;;18.30;99.90;;;;;;4976749;28;20031;-68
2021/07/13 02:45:01;;;;;;;20.27;18.45;;;18.30;99.90;;;;;;4976228;28;20023;-68
2021/07/13 02:47:28;;;;;;;18.70;17.00;;;18.30;99.90;;;;;;4976460;28;20030;-69
2021/07/13 02:49:56;;;;;;;18.52;16.77;;;18.30;99.90;;;;;;4977278;28;20036;-69
2021/07/13 02:52:23;;;;;;;19.58;17.67;;;18.20;99.90;;;;;;4995314;28;20027;-68
2021/07/13 02:54:55;;;;;;;19.30;17.55;;;18.20;99.90;;;;;;4996142;28;20054;-68
2021/07/13 02:57:22;;;;;;;;;;;18.10;99.90;;;;;;4996436;28;20403;-72
2021/07/13 02:59:47;;;;;;;19.27;17.08;;;18.00;99.90;;;;;;4995447;28;19912;-68
2021/07/13 03:02:14;;;;;;;19.75;17.95;;;18.00;99.90;;;;;;4978315;28;20026;-68
2021/07/13 03:04:41;;;;;;;19.75;17.83;;;18.00;99.90;;;;;;4984957;28;20030;-68
2021/07/13 03:07:07;;;;;;;19.60;17.88;;;18.10;99.90;;;;;;4977852;28;20034;-69
2021/07/13 03:09:33;;;;;;;19.85;18.13;;;18.10;99.90;;;;;;4995921;28;20109;-68
2021/07/13 03:11:59;;;;;;;20.48;18.55;;;18.00;99.90;;;;;;4995874;28;20046;-86
2021/07/13 03:14:26;;;;;;;19.77;17.98;;;18.00;99.90;;;;;;4994667;28;20092;-68
2021/07/13 03:16:54;;;;;;;20.80;18.85;;;18.00;99.90;;;;;;4994057;28;20061;-68
2021/07/13 03:19:20;;;;;;;20.63;18.73;;;18.00;99.90;;;;;;4995349;28;20054;-70
2021/07/13 03:21:51;;;;;;;21.20;19.30;;;18.00;99.90;;;;;;4977890;28;20210;-69
2021/07/13 03:24:17;;;;;;;;;;;18.00;99.90;;;;;;4958912;28;20073;-68
2021/07/13 03:26:47;;;;;;;22.08;20.20;;;18.00;99.90;;;;;;4958910;28;19997;-68
2021/07/13 03:29:13;;;;;;;20.35;18.55;;;18.00;99.90;;;;;;4975237;28;20084;-69
2021/07/13 03:31:40;;;;;;;20.05;18.27;;;18.00;99.90;;;;;;4976149;28;20035;-68
2021/07/13 03:34:06;;;;;;;21.25;19.08;;;18.00;99.90;;;;;;4959472;28;20142;-68
2021/07/13 03:36:32;;;;;;;21.33;19.02;;;18.10;99.90;;;;;;4979384;28;20030;-68
2021/07/13 03:38:59;;;;;;;19.98;18.23;;;18.10;99.90;;;;;;4990776;28;20101;-68
2021/07/13 03:41:28;;;;;;;19.73;18.02;;;18.10;99.90;;;;;;4974777;28;20057;-68
2021/07/13 03:43:55;;;;;;;20.80;18.70;;;18.10;99.90;;;;;;4994918;28;20030;-68
2021/07/13 03:46:21;;;;;;;19.25;17.55;;;18.10;99.90;;;;;;4993153;28;20490;-86
2021/07/13 03:48:48;;;;;;;20.33;18.02;;;18.10;99.90;;;;;;4994118;28;20114;-68
2021/07/13 03:51:34;;;;;;;19.90;18.15;;;18.10;99.90;;;;;;4994800;28;20038;-69
2021/07/13 03:54:00;;;;;;;19.80;18.00;;;18.10;99.90;;;;;;4995060;28;20031;-84
2021/07/13 03:56:26;;;;;;;19.83;18.02;;;18.10;99.90;;;;;;4994148;28;20053;-69
2021/07/13 03:58:53;;;;;;;20.02;18.33;;;18.20;99.90;;;;;;4986587;28;20383;-70
2021/07/13 04:01:19;;;;;;;21.45;19.58;;;18.20;99.90;;;;;;4975041;28;20455;-69
2021/07/13 04:03:44;;;;;;;22.63;20.45;;;18.20;99.90;;;;;;4974922;28;20022;-68
2021/07/13 04:06:10;;;;;;;22.75;20.70;;;18.20;99.90;;;;;;4975177;28;20078;-69
2021/07/13 04:08:35;;;;;;;22.08;20.08;;;18.20;99.90;;;;;;4975463;28;20035;-68
2021/07/13 04:11:01;;;;;;;23.38;20.20;;;18.30;99.90;;;;;;4974494;28;20041;-68
2021/07/13 04:13:27;;;;;;;23.35;20.95;;;18.30;99.90;;;;;;4974879;28;20027;-68
2021/07/13 04:15:53;;;;;;;22.48;20.35;;;18.30;99.90;;;;;;4976388;28;20061;-69
2021/07/13 04:18:18;;;;;;;21.95;19.95;;;18.30;99.90;;;;;;4957947;28;20038;-68
2021/07/13 04:20:44;;;;;;;22.20;20.10;;;18.40;99.90;;;;;;4974952;28;20061;-68
2021/07/13 04:23:09;;;;;;;27.10;24.65;;;18.40;99.90;;;;;;4974789;28;20050;-87
2021/07/13 04:25:35;;;;;;;30.77;27.77;;;18.40;99.90;;;;;;4974448;28;20029;-68
2021/07/13 04:28:01;;;;;;;30.23;27.33;;;18.50;99.90;;;;;;4975022;28;20357;-68
2021/07/13 04:30:27;;;;;;;37.70;33.92;;;18.50;99.90;;;;;;4973920;28;20042;-68
2021/07/13 04:32:52;;;;;;;41.08;36.97;;;18.60;99.90;;;;;;4993055;28;20034;-70
2021/07/13 04:35:18;;;;;;;40.53;36.72;;;18.60;99.90;;;;;;4994019;28;20026;-69
2021/07/13 04:37:43;;;;;;;42.00;38.00;;;18.60;99.90;;;;;;4993699;28;20833;-86
2021/07/13 04:40:10;;;;;;;44.40;39.90;;;18.60;99.90;;;;;;4989321;28;20430;-86
2021/07/13 04:42:35;;;;;;;43.42;39.10;;;18.70;99.90;;;;;;4988165;28;20431;-68
2021/07/13 04:45:01;;;;;;;39.65;35.92;;;18.70;99.90;;;;;;4973988;28;20031;-68
2021/07/13 04:47:26;;;;;;;39.65;35.88;;;18.70;99.90;;;;;;4975228;28;20026;-68
2021/07/13 04:49:52;;;;;;;40.30;36.42;;;18.80;99.90;;;;;;4974559;28;20031;-71
2021/07/13 04:52:17;;;;;;;38.60;34.83;;;18.80;99.90;;;;;;4972963;28;20031;-69
2021/07/13 04:54:43;;;;;;;38.95;35.10;;;18.80;99.90;;;;;;4974568;28;20070;-68
2021/07/13 04:57:09;;;;;;;37.80;34.28;;;18.90;99.90;;;;;;4975186;28;20043;-68
2021/07/13 04:59:34;;;;;;;39.80;35.95;;;18.90;99.90;;;;;;4956425;28;20118;-75
2021/07/13 05:02:00;;;;;;;42.38;38.13;;;18.90;99.90;;;;;;4967289;28;20034;-68
2021/07/13 05:04:25;;;;;;;42.58;38.33;;;18.90;99.90;;;;;;4980747;28;20026;-87
2021/07/13 05:06:51;;;;;;;40.50;36.10;;;18.90;99.90;;;;;;4981518;28;20050;-79
2021/07/13 05:09:16;;;;;;;39.25;35.25;;;18.90;99.90;;;;;;4983579;28;20109;-68
2021/07/13 05:11:42;;;;;;;40.05;35.90;;;18.90;99.90;;;;;;4981339;28;20042;-88
2021/07/13 05:14:07;;;;;;;38.30;34.53;;;18.90;99.90;;;;;;4981356;28;20057;-72
2021/07/13 05:16:33;;;;;;;40.90;36.83;;;18.90;99.90;;;;;;4974316;28;20030;-69
2021/07/13 05:19:00;;;;;;;41.60;37.20;;;18.90;99.90;;;;;;4974391;28;20019;-71
2021/07/13 05:21:26;;;;;;;42.80;38.53;;;18.90;99.90;;;;;;4982981;28;20105;-74
2021/07/13 05:23:51;;;;;;;40.72;36.50;;;19.00;99.90;;;;;;4989540;28;20105;-76
2021/07/13 05:26:17;;;;;;;41.90;37.45;;;19.00;99.90;;;;;;5003136;28;20027;-68
2021/07/13 05:28:43;;;;;;;38.78;35.00;;;19.10;99.90;;;;;;4974268;28;20386;-69
2021/07/13 05:31:08;;;;;;;41.35;37.15;;;19.10;99.90;;;;;;4955636;28;20435;-69
2021/07/13 05:33:34;;;;;;;39.53;35.55;;;19.00;99.90;;;;;;4977662;28;20146;-68
2021/07/13 05:36:00;;;;;;;38.75;34.75;;;19.00;99.90;;;;;;4982764;28;20475;-73
2021/07/13 05:38:25;;;;;;;41.30;37.20;;;19.10;99.90;;;;;;4955696;28;20364;-71
2021/07/13 05:40:51;;;;;;;41.97;37.63;;;19.10;99.90;;;;;;4990671;28;20106;-72
2021/07/13 05:43:17;;;;;;;41.92;37.45;;;19.20;99.90;;;;;;4990505;28;20033;-74
2021/07/13 05:45:44;;;;;;;42.80;38.20;;;19.20;99.90;;;;;;4973344;28;20485;-68
2021/07/13 05:48:10;;;;;;;45.38;40.42;;;19.20;99.90;;;;;;4975375;28;20022;-71
2021/07/13 05:50:36;;;;;;;47.42;41.42;;;19.20;99.90;;;;;;4992781;28;20053;-69
2021/07/13 05:53:02;;;;;;;49.05;43.72;;;19.20;99.90;;;;;;4992969;28;20027;-67
2021/07/13 05:55:28;;;;;;;50.28;44.47;;;19.20;99.90;;;;;;4974703;28;20061;-68
2021/07/13 05:57:53;;;;;;;52.33;42.65;;;19.10;99.90;;;;;;4983385;28;20030;-69
2021/07/13 06:00:19;;;;;;;50.22;43.03;;;19.10;99.90;;;;;;4991983;28;20074;-69
2021/07/13 06:02:45;;;;;;;50.05;43.95;;;19.10;99.90;;;;;;4993422;28;20022;-70
2021/07/13 06:05:11;;;;;;;51.42;42.42;;;19.10;99.90;;;;;;4995508;28;20034;-68
2021/07/13 06:07:44;;;;;;;54.08;43.72;;;19.00;99.90;;;;;;4992691;28;20027;-67
2021/07/13 06:10:10;;;;;;;52.53;44.63;;;19.00;99.90;;;;;;4993485;28;20367;-70
2021/07/13 06:12:36;;;;;;;50.42;44.10;;;19.10;99.90;;;;;;4983830;28;20081;-68
2021/07/13 06:15:03;;;;;;;54.75;46.50;;;19.10;99.90;;;;;;4981705;28;20082;-68
2021/07/13 06:17:28;;;;;;;53.80;46.13;;;19.20;99.90;;;;;;4994664;28;20026;-68
2021/07/13 06:19:55;;;;;;;53.50;44.05;;;19.20;99.90;;;;;;4991812;28;20542;-79
2021/07/13 06:22:20;;;;;;;57.03;47.42;;;19.20;99.90;;;;;;4965832;28;20060;-78
2021/07/13 06:24:46;;;;;;;52.75;46.38;;;19.30;99.90;;;;;;4969028;28;20459;-74
2021/07/13 06:27:11;;;;;;;51.38;44.42;;;19.30;99.90;;;;;;4960030;28;20126;-68
2021/07/13 06:29:37;;;;;;;49.55;43.10;;;19.30;99.90;;;;;;4980795;28;20073;-77
2021/07/13 06:32:03;;;;;;;50.30;44.17;;;19.40;99.90;;;;;;4991325;28;20034;-68
2021/07/13 06:34:28;;;;;;;49.22;43.95;;;19.50;99.90;;;;;;4996430;28;20026;-77
2021/07/13 06:36:54;;;;;;;51.10;44.28;;;19.50;99.90;;;;;;4979060;28;20105;-78
2021/07/13 06:39:20;;;;;;;49.33;43.05;;;19.50;99.90;;;;;;4995413;28;20041;-68
2021/07/13 06:41:45;;;;;;;49.70;43.60;;;19.60;99.90;;;;;;4996655;28;20364;-81
2021/07/13 06:44:11;;;;;;;52.97;44.70;;;19.60;99.90;;;;;;4995363;28;20391;-77
2021/07/13 06:46:37;;;;;;;53.22;45.70;;;19.60;99.90;;;;;;4978958;28;20034;-68
2021/07/13 06:49:03;;;;;;;46.35;40.92;;;19.60;99.90;;;;;;4978545;28;20023;-74
2021/07/13 06:51:29;;;;;;;46.05;40.50;;;19.60;99.90;;;;;;4978046;28;20049;-68
2021/07/13 06:53:54;;;;;;;46.80;41.80;;;19.70;99.90;;;;;;4996409;28;20360;-82
2021/07/13 06:56:20;;;;;;;47.50;42.33;;;19.70;99.90;;;;;;4995840;28;20033;-70
2021/07/13 06:58:45;;;;;;;48.03;41.30;;;19.70;99.90;;;;;;4977996;28;20026;-72
2021/07/13 07:01:11;;;;;;;46.00;40.95;;;19.80;99.90;;;;;;4995750;28;20090;-69
2021/07/13 07:03:37;;;;;;;49.95;42.33;;;19.90;99.90;;;;;;4996131;28;20080;-69
2021/07/13 07:06:02;;;;;;;47.38;41.88;;;19.80;99.90;;;;;;4995656;28;20097;-69
2021/07/13 07:08:28;;;;;;;49.03;42.63;;;19.90;99.90;;;;;;4995886;28;20030;-69
2021/07/13 07:10:53;;;;;;;47.33;42.00;;;19.90;99.90;;;;;;4995702;28;20034;-75
2021/07/13 07:13:19;;;;;;;45.45;40.42;;;19.90;99.90;;;;;;4977574;28;20521;-69
2021/07/13 07:15:45;;;;;;;47.60;42.47;;;20.10;99.90;;;;;;4994865;28;20085;-69
2021/07/13 07:18:10;;;;;;;45.90;40.65;;;20.10;99.90;;;;;;4995382;28;20023;-69
2021/07/13 07:20:36;;;;;;;47.45;42.45;;;20.10;99.90;;;;;;4994986;28;20034;-69
2021/07/13 07:23:01;;;;;;;45.10;40.22;;;20.20;99.90;;;;;;4995786;28;20113;-69
2021/07/13 07:25:30;;;;;;;42.88;37.92;;;20.20;99.90;;;;;;4995309;28;20057;-69
2021/07/13 07:27:56;;;;;;;41.33;36.85;;;20.30;99.90;;;;;;4994827;28;20014;-69
2021/07/13 07:30:23;;;;;;;43.42;38.83;;;20.30;99.90;;;;;;4977508;28;20364;-69
2021/07/13 07:32:49;;;;;;;41.30;36.90;;;20.40;99.90;;;;;;4995496;28;20023;-69
2021/07/13 07:35:15;;;;;;;39.33;35.13;;;20.40;99.90;;;;;;4976877;28;20023;-68
2021/07/13 07:37:41;;;;;;;38.35;34.35;;;20.40;99.90;;;;;;4995350;28;20022;-69
2021/07/13 07:40:10;;;;;;;37.85;33.85;;;20.50;99.90;;;;;;4995037;28;20085;-69
2021/07/13 07:42:36;;;;;;;39.95;35.17;;;20.50;99.90;;;;;;4994675;28;20104;-69
2021/07/13 07:45:03;;;;;;;38.83;34.30;;;20.60;99.90;;;;;;4995210;28;20602;-80
2021/07/13 07:47:28;;;;;;;34.20;30.58;;;20.60;99.90;;;;;;4994409;28;20022;-68
2021/07/13 07:49:54;;;;;;;36.70;32.78;;;20.70;99.90;;;;;;4995008;28;20375;-69
2021/07/13 07:52:20;;;;;;;36.35;32.45;;;20.70;99.90;;;;;;4994750;28;20471;-69
2021/07/13 07:54:45;;;;;;;36.83;32.90;;;20.70;99.90;;;;;;4994630;28;20105;-68
2021/07/13 07:57:11;;;;;;;35.78;31.90;;;20.70;99.90;;;;;;4994882;28;20031;-82
2021/07/13 07:59:36;;;;;;;33.38;29.77;;;20.80;99.90;;;;;;4994805;28;20026;-69
2021/07/13 08:02:02;;;;;;;34.35;30.70;;;20.80;99.90;;;;;;4994301;28;20058;-69
2021/07/13 08:04:28;;;;;;;33.83;30.23;;;20.90;99.90;;;;;;4977348;28;20468;-68
2021/07/13 08:06:54;;;;;;;30.98;27.77;;;21.00;99.90;;;;;;4994927;28;20018;-82
2021/07/13 08:09:20;;;;;;;30.27;27.17;;;21.00;99.90;;;;;;4993822;28;20022;-68
2021/07/13 08:11:45;;;;;;;30.95;27.77;;;21.00;99.90;;;;;;4977280;28;20062;-69
2021/07/13 08:14:11;;;;;;;28.85;25.90;;;21.10;99.90;;;;;;4994129;28;20074;-73
2021/07/13 08:16:37;;;;;;;30.15;27.05;;;21.00;99.90;;;;;;4994009;28;20022;-71
2021/07/13 08:19:04;;;;;;;27.63;24.83;;;20.90;99.90;;;;;;4994332;28;20425;-69
2021/07/13 08:21:30;;;;;;;26.98;23.65;;;20.90;99.90;;;;;;4994511;28;20022;-82
2021/07/13 08:23:55;;;;;;;29.35;26.35;;;20.90;99.90;;;;;;4993900;28;20482;-71
2021/07/13 08:26:21;;;;;;;28.52;25.45;;;20.90;99.90;;;;;;4994068;28;20080;-68
2021/07/13 08:28:46;;;;;;;26.73;23.98;;;21.10;99.90;;;;;;4994767;28;20030;-69
2021/07/13 08:31:12;;;;;;;28.05;25.20;;;21.20;99.90;;;;;;4993345;28;20038;-82
2021/07/13 08:33:37;;;;;;;26.27;23.67;;;21.30;99.90;;;;;;4976936;28;20027;-69
2021/07/13 08:36:03;;;;;;;25.67;22.80;;;21.40;99.90;;;;;;4993923;28;20023;-69
2021/07/13 08:38:28;;;;;;;26.02;23.38;;;21.50;99.90;;;;;;4993527;28;20387;-69
2021/07/13 08:40:55;;;;;;;25.73;23.17;;;21.60;99.90;;;;;;4994346;28;20459;-82
2021/07/13 08:43:25;;;;;;;23.65;21.35;;;21.80;99.90;;;;;;4994152;28;20050;-68
2021/07/13 08:45:52;;;;;;;23.85;21.45;;;22.00;99.90;;;;;;4993524;28;20026;-69
2021/07/13 08:48:21;;;;;;;23.67;21.30;;;22.20;99.90;;;;;;4993798;28;20089;-76
2021/07/13 08:50:47;;;;;;;24.85;22.35;;;22.30;99.90;;;;;;4993099;28;20121;-68
2021/07/13 08:53:12;;;;;;;22.17;20.08;;;22.50;99.90;;;;;;4993852;28;20153;-68
2021/07/13 08:55:38;;;;;;;22.50;20.30;;;22.60;99.90;;;;;;4994176;28;20488;-71
2021/07/13 08:58:04;;;;;;;22.42;20.17;;;22.70;99.90;;;;;;4993158;28;20033;-69
2021/07/13 09:00:29;;;;;;;22.10;19.95;;;22.80;99.90;;;;;;4993804;28;20470;-69
2021/07/13 09:03:12;;;;;;;22.27;20.08;;;23.00;99.90;;;;;;4976741;28;20098;-69
2021/07/13 09:05:53;;;;;;;23.20;20.98;;;23.30;99.90;;;;;;4975688;28;20027;-78
2021/07/13 09:08:26;;;;;;;20.55;18.35;;;23.40;99.90;;;;;;4993726;28;20023;-70
2021/07/13 09:11:03;;;;;;;21.50;19.40;;;23.60;99.90;;;;;;4993545;28;20084;-69
2021/07/13 09:13:31;;;;;;;22.27;20.17;;;23.90;99.90;;;;;;4992823;28;20404;-82
2021/07/13 09:15:58;;;;;;;21.77;19.75;;;24.00;99.90;;;;;;4976244;28;20076;-69
2021/07/13 09:18:42;;;;;;;22.20;19.98;;;24.20;99.90;;;;;;4993264;28;20027;-82
2021/07/13 09:21:25;;;;;;;20.55;18.65;;;24.30;99.90;;;;;;4992680;28;20018;-74
2021/07/13 09:24:12;;;;;;;18.95;17.25;;;24.40;99.90;;;;;;4993705;28;20018;-82
2021/07/13 09:26:52;;;;;;;21.08;18.88;;;24.60;99.90;;;;;;4993060;28;20467;-77
2021/07/13 09:29:33;;;;;;;19.58;17.80;;;24.50;99.90;;;;;;4993575;28;20080;-83
2021/07/13 09:32:22;;;;;;;18.73;16.83;;;24.60;99.90;;;;;;4993428;28;20034;-83
2021/07/13 09:34:54;;;;;;;20.42;18.42;;;24.80;99.90;;;;;;4975260;28;20065;-82
2021/07/13 09:37:22;;;;;;;19.58;17.77;;;24.70;99.90;;;;;;4976838;28;20022;-76
2021/07/13 09:40:03;;;;;;;20.30;18.33;;;24.60;99.90;;;;;;4999816;28;20034;-82
2021/07/13 09:42:30;;;;;;;20.25;18.35;;;24.50;99.90;;;;;;5000026;28;20022;-83
2021/07/13 09:45:21;;;;;;;19.00;17.25;;;24.40;99.90;;;;;;4999980;28;20026;-82
2021/07/13 09:47:50;;;;;;;20.35;18.45;;;24.20;99.90;;;;;;4999327;28;20101;-69
2021/07/13 09:50:32;;;;;;;18.63;16.92;;;24.10;99.90;;;;;;4999212;28;20045;-69
2021/07/13 09:52:59;;;;;;;20.00;18.10;;;24.00;99.90;;;;;;4999973;28;20023;-69
2021/07/13 09:55:25;;;;;;;20.40;18.40;;;23.90;99.90;;;;;;4998795;28;20148;-69
2021/07/13 09:57:50;;;;;;;18.27;16.58;;;23.80;99.90;;;;;;4999781;28;20042;-71
2021/07/13 10:00:16;;;;;;;19.35;17.45;;;23.90;99.90;;;;;;4999714;28;20034;-69
2021/07/13 10:02:42;;;;;;;18.58;16.77;;;24.00;99.90;;;;;;4999083;28;20041;-82
2021/07/13 10:05:08;;;;;;;17.65;16.05;;;24.30;99.90;;;;;;4981866;28;20022;-75
2021/07/13 10:07:36;;;;;;;17.92;16.23;;;24.50;99.90;;;;;;4982143;28;20019;-69
2021/07/13 10:10:03;;;;;;;16.70;15.20;;;24.60;99.90;;;;;;4998804;28;20537;-83
2021/07/13 10:12:30;;;;;;;17.55;15.75;;;24.70;99.90;;;;;;4999689;28;20030;-69
2021/07/13 10:14:57;;;;;;;16.52;15.02;;;24.90;99.90;;;;;;4982030;28;20042;-69
2021/07/13 10:17:31;;;;;;;16.75;15.07;;;25.00;99.90;;;;;;4998647;28;20471;-79
2021/07/13 10:20:06;;;;;;;17.75;16.00;;;25.10;99.90;;;;;;4982041;28;20030;-69
2021/07/13 10:22:35;;;;;;;17.45;15.85;;;25.10;99.90;;;;;;4981511;28;20122;-69
2021/07/13 10:25:01;;;;;;;16.98;15.40;;;25.10;99.90;;;;;;4999534;28;20073;-70
2021/07/13 10:27:35;;;;;;;16.35;14.77;;;24.90;99.90;;;;;;4999230;28;20037;-69
2021/07/13 10:30:07;;;;;;;15.68;14.18;;;24.80;99.90;;;;;;4998702;28;20475;-69
2021/07/13 10:32:41;;;;;;;21.63;18.00;;;24.70;99.90;;;;;;4999472;28;20023;-75
2021/07/13 10:35:23;;;;;;;19.83;16.83;;;24.60;99.90;;;;;;4981660;28;20069;-79
2021/07/13 10:37:50;;;;;;;17.05;15.45;;;24.40;99.90;;;;;;4998795;28;20022;-70
2021/07/13 10:40:25;;;;;;;17.42;15.82;;;24.20;99.90;;;;;;4998966;28;20022;-76
2021/07/13 10:42:55;;;;;;;17.25;15.65;;;24.10;99.90;;;;;;4999489;28;20046;-72
2021/07/13 10:45:34;;;;;;;17.98;16.13;;;24.00;99.90;;;;;;4998463;28;20457;-71
2021/07/13 10:48:14;;;;;;;17.00;15.40;;;23.80;99.90;;;;;;4999240;28;20031;-82
2021/07/13 10:50:52;;;;;;;20.58;18.67;;;23.70;99.90;;;;;;4994841;28;20088;-82
2021/07/13 10:53:45;;;;;;;19.23;17.30;;;23.70;99.90;;;;;;4995921;28;20081;-79
2021/07/13 10:56:19;;;;;;;20.52;18.52;;;23.70;99.90;;;;;;4995866;28;20033;-70
2021/07/13 10:58:50;;;;;;;20.48;18.55;;;23.80;99.90;;;;;;4977932;28;20546;-70
2021/07/13 11:01:30;;;;;;;19.75;17.70;;;23.90;99.90;;;;;;4995807;28;20097;-70
2021/07/13 11:03:57;;;;;;;19.52;17.63;;;24.00;99.90;;;;;;4996122;28;20462;-83
2021/07/13 11:06:41;;;;;;;18.58;16.77;;;23.90;99.90;;;;;;4995052;28;20156;-81
2021/07/13 11:09:19;;;;;;;18.52;16.73;;;23.90;99.90;;;;;;4978198;28;20478;-81
2021/07/13 11:11:45;;;;;;;19.52;17.58;;;24.20;99.90;;;;;;4995197;28;20034;-82
2021/07/13 11:14:11;;;;;;;18.48;16.67;;;24.50;99.90;;;;;;4995403;28;20117;-83
2021/07/13 11:16:39;;;;;;;20.52;18.50;;;24.60;99.90;;;;;;4995726;28;20037;-76
2021/07/13 11:19:12;;;;;;;18.88;16.98;;;24.60;99.90;;;;;;4994790;28;20034;-83
2021/07/13 11:21:40;;;;;;;17.75;15.98;;;24.60;99.90;;;;;;4995848;28;20097;-79
2021/07/13 11:24:06;;;;;;;19.38;17.10;;;24.50;99.90;;;;;;4995189;28;20054;-69
2021/07/13 11:26:33;;;;;;;20.02;18.10;;;24.40;99.90;;;;;;4995119;28;20057;-69
2021/07/13 11:29:01;;;;;;;19.80;17.90;;;24.20;99.90;;;;;;4995451;28;20022;-84
2021/07/13 11:31:31;;;;;;;20.75;18.85;;;24.20;99.90;;;;;;4995212;28;20038;-82
2021/07/13 11:34:03;;;;;;;18.60;16.90;;;24.10;99.90;;;;;;4995224;28;20026;-72
2021/07/13 11:36:34;;;;;;;18.58;16.77;;;24.10;99.90;;;;;;4996327;28;20110;-70
2021/07/13 11:39:02;;;;;;;20.85;18.77;;;24.10;99.90;;;;;;4995397;28;20018;-84
2021/07/13 11:41:29;;;;;;;20.17;18.27;;;24.20;99.90;;;;;;4994553;28;20029;-84
2021/07/13 11:43:57;;;;;;;20.75;18.75;;;24.30;99.90;;;;;;4995399;28;20029;-75
2021/07/13 11:46:34;;;;;;;20.38;18.48;;;24.40;99.90;;;;;;4994854;28;20027;-74
2021/07/13 11:49:06;;;;;;;19.80;17.85;;;24.60;99.90;;;;;;4995252;28;20026;-70
2021/07/13 11:51:37;;;;;;;20.70;18.40;;;24.60;99.90;;;;;;4995210;28;20085;-85
2021/07/13 11:54:11;;;;;;;20.60;18.60;;;24.70;99.90;;;;;;4994160;28;20114;-71
2021/07/13 11:56:40;;;;;;;22.85;20.65;;;24.70;99.90;;;;;;4977581;28;20027;-72
2021/07/13 11:59:07;;;;;;;22.73;20.42;;;24.60;99.90;;;;;;4994747;28;20022;-70
2021/07/13 12:01:34;;;;;;;21.70;19.60;;;24.40;99.90;;;;;;4977971;28;20027;-71
2021/07/13 12:04:02;;;;;;;23.15;20.85;;;24.30;99.90;;;;;;4994814;28;20029;-84
2021/07/13 12:06:27;;;;;;;20.73;18.75;;;24.30;99.90;;;;;;4995078;28;20025;-84
2021/07/13 12:08:55;;;;;;;20.52;18.63;;;24.30;99.90;;;;;;4994165;28;20105;-84
2021/07/13 12:11:26;;;;;;;21.63;19.63;;;24.40;99.90;;;;;;4976721;28;20034;-70
2021/07/13 12:13:53;;;;;;;20.98;18.98;;;24.60;99.90;;;;;;4992618;28;20031;-71
2021/07/13 12:16:40;;;;;;;21.75;19.75;;;24.70;99.90;;;;;;4993467;28;20034;-70
2021/07/13 12:19:16;;;;;;;20.13;18.20;;;24.80;99.90;;;;;;4994202;28;20566;-83
2021/07/13 12:21:50;;;;;;;19.08;17.17;;;24.90;99.90;;;;;;4976279;28;20534;-81
2021/07/13 12:24:19;;;;;;;19.33;17.52;;;25.10;99.90;;;;;;4994182;28;20031;-81
2021/07/13 12:26:53;;;;;;;19.80;18.00;;;25.20;99.90;;;;;;4977126;28;20117;-70
2021/07/13 12:29:21;;;;;;;20.02;18.23;;;25.20;99.90;;;;;;4976872;28;20498;-70
2021/07/13 12:31:47;;;;;;;20.35;18.42;;;25.10;99.90;;;;;;4994350;28;20147;-77
2021/07/13 12:34:21;;;;;;;20.40;18.40;;;24.90;99.90;;;;;;4994099;28;20102;-70